Aviation Digital Data Service (ADDS)

Output produced by METARs form (1224 UTC 01 November 2014)
found at http://aviationweather.gov/adds/metars/
 
KPVD 011120Z 0112/0212 02012KT P6SM OVC090 
     FM011400 01014G26KT P6SM -RA OVC030 
     FM011500 01014G25KT 5SM -RA OVC020 
     FM011700 01015G25KT 2SM RA OVC010 
     FM012000 01017G29KT 3SM -RA OVC008 
     FM020300 36018G36KT P6SM OVC008